Time;durP1;ratioP1;P1;durP2;ratioP2;P2;SDS_P1;SDS_P2;PMS_P1;PMS_P2;Temp;Humidity;BMP_temperature;BMP_pressure;BME280_temperature;BME280_humidity;BME280_pressure;Samples;Min_cycle;Max_cycle;Signal;HPM_P1;HPM_P2
2022/03/21 00:00:33;;;;;;;;;;;;;;;16.87;33.63;102736.56;5076552;28;1979;-58
2022/03/21 00:02:59;;;;;;;;;;;;;;;17.10;33.21;102741.44;5075973;28;831;-58
2022/03/21 00:05:25;;;;;;;;;;;;;;;17.03;32.93;102733.25;5076443;28;829;-60
2022/03/21 00:07:51;;;;;;;;;;;;;;;17.15;32.94;102732.47;5076458;28;845;-59
2022/03/21 00:10:16;;;;;;;;;;;;;;;17.60;32.07;102729.38;5076976;28;785;-58
2022/03/21 00:12:42;;;;;;;;;;;;;;;17.90;31.66;102728.50;5076975;28;957;-59
2022/03/21 00:15:10;;;;;;;;;;;;;;;17.93;31.78;102733.56;5081111;28;1036;-60
2022/03/21 00:17:40;;;;;;;;;;;;;;;17.89;31.83;102726.84;5095174;28;862;-59
2022/03/21 00:20:07;;;;;;;;;;;;;;;17.40;32.40;102725.00;5075103;28;1984;-60
2022/03/21 00:22:33;;;;;;;;;;;;;;;17.16;32.84;102723.16;5076637;28;912;-61
2022/03/21 00:24:59;;;;;;;;;;;;;;;17.04;33.19;102725.84;5075731;28;1123;-60
2022/03/21 00:27:24;;;;;;;;;;;;;;;16.99;32.98;102731.19;5076002;28;788;-60
2022/03/21 00:29:55;;;;;;;;;;;;;;;16.96;33.38;102728.88;5075053;28;1166;-60
2022/03/21 00:32:20;;;;;;;;;;;;;;;17.56;32.21;102725.41;5076410;28;772;-60
2022/03/21 00:34:46;;;;;;;;;;;;;;;17.95;31.45;102723.19;5076513;28;1047;-60
2022/03/21 00:37:12;;;;;;;;;;;;;;;17.88;31.73;102714.13;5076101;28;876;-60
2022/03/21 00:39:39;;;;;;;;;;;;;;;17.39;32.57;102723.31;5075957;28;821;-60
2022/03/21 00:42:04;;;;;;;;;;;;;;;17.05;32.85;102717.34;5075759;28;1897;-61
2022/03/21 00:44:30;;;;;;;;;;;;;;;17.11;32.97;102710.13;5076204;28;836;-60
2022/03/21 00:46:55;;;;;;;;;;;;;;;17.08;32.96;102705.06;5076379;28;776;-60
2022/03/21 00:49:20;;;;;;;;;;;;;;;17.89;31.45;102713.06;5075582;28;905;-61
2022/03/21 00:51:46;;;;;;;;;;;;;;;18.09;31.19;102705.38;5075572;28;1283;-60
2022/03/21 00:54:11;;;;;;;;;;;;;;;17.40;32.06;102707.63;5075465;28;1237;-60
2022/03/21 00:56:37;;;;;;;;;;;;;;;17.11;32.93;102699.13;5075597;28;1348;-61
2022/03/21 00:59:03;;;;;;;;;;;;;;;17.08;32.83;102700.44;5078027;28;1261;-60
2022/03/21 01:01:29;;;;;;;;;;;;;;;17.02;33.04;102709.56;5075395;28;1967;-61
2022/03/21 01:03:54;;;;;;;;;;;;;;;17.69;31.87;102703.19;5073777;28;1223;-60
2022/03/21 01:06:22;;;;;;;;;;;;;;;18.02;31.18;102698.28;5075126;28;1308;-60
2022/03/21 01:08:47;;;;;;;;;;;;;;;17.53;32.07;102695.59;5075104;28;1155;-61
2022/03/21 01:11:13;;;;;;;;;;;;;;;17.09;32.74;102699.34;5080807;28;1221;-61
2022/03/21 01:13:41;;;;;;;;;;;;;;;17.03;32.67;102697.53;5078967;28;1253;-60
2022/03/21 01:16:07;;;;;;;;;;;;;;;17.26;32.50;102701.47;5076365;28;1186;-61
2022/03/21 01:18:32;;;;;;;;;;;;;;;17.60;32.12;102693.63;5077991;28;1194;-61
2022/03/21 01:20:58;;;;;;;;;;;;;;;17.90;31.45;102699.06;5081534;28;1976;-60
2022/03/21 01:23:23;;;;;;;;;;;;;;;18.16;31.15;102694.25;5079454;28;1068;-60
2022/03/21 01:25:49;;;;;;;;;;;;;;;18.05;30.93;102693.16;5079142;28;1194;-59
2022/03/21 01:28:14;;;;;;;;;;;;;;;17.71;31.63;102692.81;5079055;28;1056;-60
2022/03/21 01:30:40;;;;;;;;;;;;;;;17.31;32.25;102709.03;5081162;28;1226;-60
2022/03/21 01:33:07;;;;;;;;;;;;;;;17.12;32.62;102689.78;5077813;28;1194;-60
2022/03/21 01:35:32;;;;;;;;;;;;;;;17.03;32.74;102686.53;5078897;28;1082;-60
2022/03/21 01:37:58;;;;;;;;;;;;;;;17.28;32.39;102688.34;5078635;28;1226;-61
2022/03/21 01:40:23;;;;;;;;;;;;;;;18.02;31.38;102693.63;5078180;28;1972;-60
2022/03/21 01:42:49;;;;;;;;;;;;;;;17.85;31.22;102698.09;5081554;28;1317;-60
2022/03/21 01:45:14;;;;;;;;;;;;;;;17.51;32.11;102687.59;5078619;28;1332;-59
2022/03/21 01:47:41;;;;;;;;;;;;;;;17.17;32.44;102694.63;5078062;28;1246;-60
2022/03/21 01:50:07;;;;;;;;;;;;;;;17.13;32.46;102682.41;5075886;28;1202;-59
2022/03/21 01:52:33;;;;;;;;;;;;;;;17.09;32.70;102685.59;5078361;28;1347;-59
2022/03/21 01:57:43;;;;;;;;;;;;;;;18.07;30.93;102684.66;5106263;28;1253;-61
2022/03/21 02:00:08;;;;;;;;;;;;;;;18.02;30.97;102681.78;5109965;27;1894;-60
2022/03/21 02:02:42;;;;;;;;;;;;;;;17.67;31.57;102690.75;5078160;28;1242;-60
2022/03/21 02:05:08;;;;;;;;;;;;;;;17.26;32.35;102683.06;5078356;28;1107;-60
2022/03/21 02:07:33;;;;;;;;;;;;;;;17.18;32.52;102674.28;5080959;28;1039;-60
2022/03/21 02:09:59;;;;;;;;;;;;;;;17.35;32.38;102678.09;5079765;28;1273;-60
2022/03/21 02:12:24;;;;;;;;;;;;;;;18.00;31.11;102679.25;5078341;28;1361;-60
2022/03/21 02:14:50;;;;;;;;;;;;;;;18.00;31.01;102668.25;5110083;27;1258;-60
2022/03/21 02:17:19;;;;;;;;;;;;;;;17.74;31.53;102674.97;5120754;27;1261;-61
2022/03/21 02:19:45;;;;;;;;;;;;;;;17.30;32.29;102671.59;5096350;28;1260;-60
2022/03/21 02:22:46;;;;;;;;;;;;;;;17.08;32.40;102672.94;5097345;28;1913;-60
2022/03/21 02:25:22;;;;;;;;;;;;;;;17.08;32.76;102667.44;5055236;28;1183;-60
2022/03/21 02:27:48;;;;;;;;;;;;;;;17.49;31.97;102677.88;5088327;28;985;-60
2022/03/21 02:30:14;;;;;;;;;;;;;;;17.84;31.39;102668.91;5097677;28;1039;-60
2022/03/21 02:32:40;;;;;;;;;;;;;;;18.03;31.02;102672.44;5128855;27;851;-60
2022/03/21 02:35:05;;;;;;;;;;;;;;;18.01;30.78;102675.44;5076738;28;905;-59
2022/03/21 02:37:31;;;;;;;;;;;;;;;17.69;31.54;102677.63;5076921;28;809;-61
2022/03/21 02:39:56;;;;;;;;;;;;;;;17.26;32.17;102673.97;5110513;27;1901;-61
2022/03/21 02:42:22;;;;;;;;;;;;;;;17.06;32.58;102680.56;5085237;28;794;-61
2022/03/21 02:44:47;;;;;;;;;;;;;;;17.01;32.47;102672.19;5097640;28;840;-61
2022/03/21 02:47:12;;;;;;;;;;;;;;;16.90;32.88;102668.28;5097186;28;792;-60
2022/03/21 02:49:38;;;;;;;;;;;;;;;17.38;32.21;102677.63;5080292;28;887;-61
2022/03/21 02:52:04;;;;;;;;;;;;;;;17.75;31.49;102676.66;5077445;28;975;-61
2022/03/21 02:54:30;;;;;;;;;;;;;;;17.91;31.21;102680.69;5077601;28;829;-61
2022/03/21 02:56:55;;;;;;;;;;;;;;;17.32;31.94;102678.56;5077694;28;1019;-60
2022/03/21 02:59:21;;;;;;;;;;;;;;;17.20;32.05;102677.66;5077629;28;841;-60
2022/03/21 03:01:46;;;;;;;;;;;;;;;16.99;32.69;102678.97;5076820;28;1987;-61
2022/03/21 03:04:12;;;;;;;;;;;;;;;16.87;32.69;102681.59;5077157;28;861;-61
2022/03/21 03:06:40;;;;;;;;;;;;;;;17.58;31.71;102679.25;5077586;28;829;-61
2022/03/21 03:09:06;;;;;;;;;;;;;;;18.01;30.92;102680.13;5077341;28;790;-61
2022/03/21 03:11:31;;;;;;;;;;;;;;;17.71;31.40;102678.19;5077411;28;865;-61
2022/03/21 03:13:57;;;;;;;;;;;;;;;17.09;32.06;102674.59;5076916;28;841;-61
2022/03/21 03:16:22;;;;;;;;;;;;;;;16.98;32.41;102671.78;5076968;28;1068;-60
2022/03/21 03:18:48;;;;;;;;;;;;;;;17.10;32.34;102678.19;5077000;28;752;-60
2022/03/21 03:21:15;;;;;;;;;;;;;;;17.74;31.21;102674.97;5086581;28;1906;-61
2022/03/21 03:23:40;;;;;;;;;;;;;;;18.04;30.59;102674.13;5129123;27;915;-61
2022/03/21 03:26:05;;;;;;;;;;;;;;;17.66;31.07;102673.41;5096350;28;833;-61
2022/03/21 03:28:32;;;;;;;;;;;;;;;17.18;32.04;102666.03;5077240;28;900;-60
2022/03/21 03:30:58;;;;;;;;;;;;;;;17.00;32.45;102670.50;5076673;28;872;-60
2022/03/21 03:33:24;;;;;;;;;;;;;;;17.57;31.60;102669.31;5075628;28;910;-60
2022/03/21 03:35:49;;;;;;;;;;;;;;;18.06;30.66;102672.81;5109341;28;933;-60
2022/03/21 03:38:15;;;;;;;;;;;;;;;17.84;31.07;102668.91;5077059;28;899;-60
2022/03/21 03:40:41;;;;;;;;;;;;;;;17.38;31.68;102672.13;5076441;28;1976;-60
2022/03/21 03:43:06;;;;;;;;;;;;;;;17.17;32.11;102672.63;5076797;28;824;-60
2022/03/21 03:45:32;;;;;;;;;;;;;;;17.02;32.39;102668.34;5077004;28;844;-59
2022/03/21 03:47:57;;;;;;;;;;;;;;;17.07;32.33;102674.00;5076283;28;876;-60
2022/03/21 03:50:23;;;;;;;;;;;;;;;17.10;32.02;102669.97;5076508;28;872;-60
2022/03/21 03:52:48;;;;;;;;;;;;;;;17.63;31.18;102671.13;5076590;28;801;-59
2022/03/21 03:55:14;;;;;;;;;;;;;;;17.95;30.69;102676.41;5076377;28;777;-60
2022/03/21 03:57:39;;;;;;;;;;;;;;;17.59;31.25;102675.44;5077086;28;736;-61
2022/03/21 04:00:08;;;;;;;;;;;;;;;17.21;31.90;102673.84;5076684;28;1909;-59
2022/03/21 04:05:22;;;;;;;;;;;;;;;17.15;31.85;102677.50;5071490;28;842;-60
2022/03/21 04:07:47;;;;;;;;;;;;;;;17.55;31.20;102672.28;5108993;27;1137;-60
2022/03/21 04:10:13;;;;;;;;;;;;;;;18.12;30.50;102677.38;5076493;28;818;-59
2022/03/21 04:12:38;;;;;;;;;;;;;;;17.70;31.10;102674.63;5076293;28;829;-60
2022/03/21 04:15:04;;;;;;;;;;;;;;;17.36;31.69;102674.28;5076273;28;981;-60
2022/03/21 04:17:29;;;;;;;;;;;;;;;17.12;31.88;102683.47;5075405;28;1084;-59
2022/03/21 04:19:55;;;;;;;;;;;;;;;16.95;32.47;102675.00;5076500;28;925;-59
2022/03/21 04:22:20;;;;;;;;;;;;;;;16.95;32.53;102669.50;5076160;28;1906;-59
2022/03/21 04:24:46;;;;;;;;;;;;;;;17.42;31.76;102681.56;5075918;28;742;-59
2022/03/21 04:27:11;;;;;;;;;;;;;;;17.86;30.88;102672.28;5076987;28;947;-59
2022/03/21 04:29:37;;;;;;;;;;;;;;;18.03;30.69;102673.28;5076520;28;765;-58
2022/03/21 04:32:03;;;;;;;;;;;;;;;17.59;31.27;102687.25;5076021;28;789;-59
2022/03/21 04:34:28;;;;;;;;;;;;;;;17.27;31.75;102683.91;5075775;28;840;-59
2022/03/21 04:36:54;;;;;;;;;;;;;;;16.96;32.31;102684.91;5076499;28;817;-58
2022/03/21 04:39:19;;;;;;;;;;;;;;;17.10;32.07;102676.28;5076493;28;892;-57
2022/03/21 04:41:45;;;;;;;;;;;;;;;17.58;31.33;102671.00;5076494;28;1968;-58
2022/03/21 04:44:11;;;;;;;;;;;;;;;18.00;30.43;102682.00;5078040;28;803;-59
2022/03/21 04:46:36;;;;;;;;;;;;;;;17.94;30.77;102675.53;5079859;28;865;-59
2022/03/21 04:49:02;;;;;;;;;;;;;;;17.43;31.40;102674.16;5079553;28;1036;-58
2022/03/21 04:51:27;;;;;;;;;;;;;;;17.17;32.06;102680.88;5080396;28;810;-58
2022/03/21 04:53:53;;;;;;;;;;;;;;;16.91;32.07;102680.97;5078157;28;1376;-58
2022/03/21 04:56:18;;;;;;;;;;;;;;;17.24;31.33;102670.63;5077555;28;1409;-53
2022/03/21 04:58:44;;;;;;;;;;;;;;;17.69;30.80;102675.69;5079941;28;1261;-54
2022/03/21 05:01:09;;;;;;;;;;;;;;;18.10;29.93;102675.91;5081101;28;1964;-49
2022/03/21 05:03:35;;;;;;;;;;;;;;;18.28;29.58;102680.50;5085141;28;835;-51
2022/03/21 05:06:00;;;;;;;;;;;;;;;17.96;30.39;102667.03;5079509;28;946;-51
2022/03/21 05:08:26;;;;;;;;;;;;;;;17.59;30.80;102670.75;5076281;28;1518;-52
2022/03/21 05:10:51;;;;;;;;;;;;;;;17.44;31.28;102665.66;5078800;28;757;-52
2022/03/21 05:13:16;;;;;;;;;;;;;;;17.40;31.39;102664.50;5079683;28;813;-52
2022/03/21 05:15:43;;;;;;;;;;;;;;;17.39;31.27;102673.81;5085328;28;1281;-50
2022/03/21 05:18:08;;;;;;;;;;;;;;;17.54;30.20;102670.59;5079744;28;949;-53
2022/03/21 05:20:33;;;;;;;;;;;;;;;17.53;29.89;102663.44;5079656;28;1964;-57
2022/03/21 05:31:11;;;;;;;;;;;;;;;18.08;29.35;102665.16;5079345;28;802;-57
2022/03/21 05:36:29;;;;;;;;;;;;;;;17.22;30.81;102662.63;5079431;28;777;-54
2022/03/21 05:38:55;;;;;;;;;;;;;;;17.30;30.75;102668.84;5078953;28;812;-55
2022/03/21 05:41:20;;;;;;;;;;;;;;;17.61;30.35;102682.38;5078664;28;1906;-57
2022/03/21 05:43:46;;;;;;;;;;;;;;;17.97;29.52;102674.22;5074173;28;1191;-55
2022/03/21 05:46:11;;;;;;;;;;;;;;;18.28;29.27;102677.72;5078743;28;1138;-55
2022/03/21 05:48:53;;;;;;;;;;;;;;;18.08;29.39;102681.66;5079124;28;1039;-52
2022/03/21 05:51:27;;;;;;;;;;;;;;;17.49;30.45;102669.63;5078695;28;788;-57
2022/03/21 05:53:54;;;;;;;;;;;;;;;17.24;30.95;102681.63;5079070;28;773;-56
2022/03/21 05:56:19;;;;;;;;;;;;;;;17.15;31.00;102683.00;5078177;28;956;-57
2022/03/21 05:58:45;;;;;;;;;;;;;;;17.17;31.21;102681.69;5087299;28;820;-57
2022/03/21 06:01:11;;;;;;;;;;;;;;;17.32;30.92;102695.06;5093437;28;1966;-57
2022/03/21 06:03:37;;;;;;;;;;;;;;;17.58;30.48;102676.50;5074137;28;1098;-56
2022/03/21 06:06:02;;;;;;;;;;;;;;;17.99;29.98;102677.56;5070990;28;1316;-57
2022/03/21 06:08:28;;;;;;;;;;;;;;;18.29;29.33;102676.66;5073894;28;1171;-57
2022/03/21 06:11:03;;;;;;;;;;;;;;;18.34;29.40;102679.56;5073742;28;1218;-56
2022/03/21 06:13:29;;;;;;;;;;;;;;;18.07;29.72;102668.97;5071332;28;1183;-55
2022/03/21 06:15:55;;;;;;;;;;;;;;;17.82;30.04;102671.88;5078306;28;1044;-59
2022/03/21 06:18:20;;;;;;;;;;;;;;;17.47;30.78;102669.88;5076887;28;1497;-57
2022/03/21 06:20:46;;;;;;;;;;;;;;;17.33;30.71;102671.97;5080246;28;1909;-54
2022/03/21 06:23:11;;;;;;;;;;;;;;;17.76;30.33;102668.16;5089280;28;820;-55
2022/03/21 06:25:37;;;;;;;;;;;;;;;18.26;29.71;102677.16;5078352;28;861;-56
2022/03/21 06:28:03;;;;;;;;;;;;;;;17.89;30.23;102671.78;5078023;28;816;-55
2022/03/21 06:30:29;;;;;;;;;;;;;;;17.55;30.72;102679.72;5078439;28;755;-55
2022/03/21 06:32:54;;;;;;;;;;;;;;;17.38;30.81;102677.63;5073975;28;1290;-53
2022/03/21 06:35:20;;;;;;;;;;;;;;;17.23;31.33;102679.94;5077948;28;888;-55
2022/03/21 06:37:45;;;;;;;;;;;;;;;17.79;30.41;102675.97;5077607;28;937;-56
2022/03/21 06:40:11;;;;;;;;;;;;;;;17.69;30.35;102678.44;5078406;28;1879;-58
2022/03/21 06:42:36;;;;;;;;;;;;;;;17.33;31.18;102691.22;5077723;28;847;-55
2022/03/21 06:45:02;;;;;;;;;;;;;;;17.20;31.21;102678.50;5077794;28;775;-56
2022/03/21 06:47:27;;;;;;;;;;;;;;;17.21;31.33;102682.91;5078136;28;919;-52
2022/03/21 06:49:53;;;;;;;;;;;;;;;18.09;29.97;102685.25;5077208;28;885;-52
2022/03/21 06:52:18;;;;;;;;;;;;;;;18.70;28.78;102690.53;5077823;28;844;-54
2022/03/21 06:54:45;;;;;;;;;;;;;;;18.08;29.84;102684.41;5077879;28;825;-55
2022/03/21 06:57:11;;;;;;;;;;;;;;;17.73;30.37;102685.16;5077265;28;835;-54
2022/03/21 06:59:37;;;;;;;;;;;;;;;17.87;30.26;102693.22;5077669;28;770;-56
2022/03/21 07:02:02;;;;;;;;;;;;;;;18.08;29.70;102692.69;5074279;28;1902;-57
2022/03/21 07:04:28;;;;;;;;;;;;;;;18.15;29.79;102694.50;5074173;28;1099;-56
2022/03/21 07:06:53;;;;;;;;;;;;;;;17.67;30.35;102693.50;5074661;28;1178;-57
2022/03/21 07:09:19;;;;;;;;;;;;;;;17.58;30.63;102693.00;5077704;28;800;-55
2022/03/21 07:11:45;;;;;;;;;;;;;;;17.16;31.15;102688.25;5077161;28;925;-55
2022/03/21 07:14:10;;;;;;;;;;;;;;;17.28;31.27;102699.34;5076909;28;862;-56
2022/03/21 07:16:36;;;;;;;;;;;;;;;17.85;30.50;102692.59;5077387;28;1025;-56
2022/03/21 07:19:01;;;;;;;;;;;;;;;18.43;29.27;102694.63;5076853;28;765;-53
2022/03/21 07:21:27;;;;;;;;;;;;;;;18.01;29.69;102694.72;5077030;28;1906;-56
2022/03/21 07:23:52;;;;;;;;;;;;;;;17.61;30.20;102689.78;5077252;28;825;-56
2022/03/21 07:26:17;;;;;;;;;;;;;;;17.43;30.39;102685.16;5076753;28;821;-56
2022/03/21 07:28:43;;;;;;;;;;;;;;;17.36;30.66;102689.91;5076803;28;944;-56
2022/03/21 07:31:09;;;;;;;;;;;;;;;17.94;29.94;102691.22;5076924;28;903;-56
2022/03/21 07:33:35;;;;;;;;;;;;;;;17.68;30.08;102687.75;5075226;28;1299;-59
2022/03/21 07:36:01;;;;;;;;;;;;;;;17.47;30.56;102691.88;5096625;28;845;-58
2022/03/21 07:38:29;;;;;;;;;;;;;;;17.32;30.79;102688.69;5085437;28;956;-57
2022/03/21 07:40:54;;;;;;;;;;;;;;;17.34;30.81;102692.91;5076541;28;1906;-58
2022/03/21 07:43:20;;;;;;;;;;;;;;;17.69;30.29;102683.94;5077169;28;747;-58
2022/03/21 07:48:29;;;;;;;;;;;;;;;18.15;29.51;102691.75;5076746;28;722;-58
2022/03/21 07:50:55;;;;;;;;;;;;;;;17.81;30.08;102678.50;5077067;28;770;-59
2022/03/21 07:53:20;;;;;;;;;;;;;;;17.52;30.46;102680.19;5076745;28;808;-56
2022/03/21 07:55:46;;;;;;;;;;;;;;;17.21;30.92;102680.16;5076255;28;1110;-55
2022/03/21 07:58:12;;;;;;;;;;;;;;;17.43;30.66;102668.66;5070118;28;1348;-55
2022/03/21 08:00:37;;;;;;;;;;;;;;;17.97;29.61;102677.00;5076312;28;1964;-55
2022/03/21 08:03:03;;;;;;;;;;;;;;;17.78;29.95;102670.69;5076778;28;769;-57
2022/03/21 08:05:28;;;;;;;;;;;;;;;17.54;30.49;102675.28;5071059;28;1379;-58
2022/03/21 08:07:54;;;;;;;;;;;;;;;17.27;30.65;102665.47;5074173;28;1039;-56
2022/03/21 08:10:20;;;;;;;;;;;;;;;17.28;31.02;102667.16;5076140;28;1092;-57
2022/03/21 08:12:46;;;;;;;;;;;;;;;17.89;29.88;102671.78;5076276;28;924;-54
2022/03/21 08:15:12;;;;;;;;;;;;;;;17.88;29.98;102667.34;5075449;28;1833;-56
2022/03/21 08:17:57;;;;;;;;;;;;;;;17.60;30.34;102663.34;5076398;28;773;-56
2022/03/21 08:20:23;;;;;;;;;;;;;;;17.13;31.05;102665.91;5069556;28;1969;-56
2022/03/21 08:25:38;;;;;;;;;;;;;;;17.28;30.79;102672.66;5302932;23;8156;-53
2022/03/21 08:28:05;;;;;;;;;;;;;;;17.81;30.16;102658.38;4972626;28;1130;-53
2022/03/21 08:30:32;;;;;;;;;;;;;;;17.54;30.14;102667.03;4977622;28;833;-52
2022/03/21 08:32:58;;;;;;;;;;;;;;;17.39;30.63;102673.81;4981839;28;1005;-52
2022/03/21 08:35:24;;;;;;;;;;;;;;;17.33;30.58;102669.22;4986072;28;1024;-50
2022/03/21 08:37:49;;;;;;;;;;;;;;;17.25;30.97;102655.78;4977431;28;830;-50
2022/03/21 08:40:15;;;;;;;;;;;;;;;17.48;30.41;102654.22;4976986;28;1979;-50
2022/03/21 08:42:40;;;;;;;;;;;;;;;18.15;29.66;102658.72;4973204;28;832;-51
2022/03/21 08:45:06;;;;;;;;;;;;;;;18.51;28.92;102652.13;4992949;28;858;-51
2022/03/21 08:47:31;;;;;;;;;;;;;;;18.62;28.64;102650.41;4995834;28;769;-52
2022/03/21 08:49:57;;;;;;;;;;;;;;;18.30;29.13;102651.63;4996498;28;995;-52
2022/03/21 08:52:22;;;;;;;;;;;;;;;17.80;30.08;102652.03;4996300;28;777;-50
2022/03/21 08:54:48;;;;;;;;;;;;;;;17.60;30.41;102641.34;4995735;28;943;-47
2022/03/21 08:57:13;;;;;;;;;;;;;;;17.34;30.74;102645.31;4982622;28;916;-52
2022/03/21 08:59:39;;;;;;;;;;;;;;;17.68;30.37;102654.75;4994515;28;822;-50
2022/03/21 09:02:04;;;;;;;;;;;;;;;18.24;29.39;102646.25;4995774;28;1971;-52
2022/03/21 09:04:30;;;;;;;;;;;;;;;17.89;29.85;102644.25;4995909;28;921;-51
2022/03/21 09:06:55;;;;;;;;;;;;;;;17.73;29.89;102638.38;4995688;28;837;-51
2022/03/21 09:09:21;;;;;;;;;;;;;;;17.32;30.82;102631.81;4993430;28;746;-48
2022/03/21 09:11:46;;;;;;;;;;;;;;;17.31;30.90;102645.81;4996209;28;770;-50
2022/03/21 09:14:12;;;;;;;;;;;;;;;17.44;30.59;102646.41;4978151;28;1184;-49
2022/03/21 09:16:39;;;;;;;;;;;;;;;18.00;29.61;102648.97;4974102;28;1066;-53
2022/03/21 09:19:04;;;;;;;;;;;;;;;18.51;28.76;102651.25;4955180;28;1034;-48
2022/03/21 09:21:30;;;;;;;;;;;;;;;18.84;28.29;102639.56;4976501;28;1907;-51
2022/03/21 09:23:55;;;;;;;;;;;;;;;18.91;28.13;102645.81;4992137;28;762;-51
2022/03/21 09:26:21;;;;;;;;;;;;;;;18.53;28.67;102660.13;4977599;28;1345;-51
2022/03/21 09:28:48;;;;;;;;;;;;;;;18.24;28.67;102652.59;4970326;28;1244;-51
2022/03/21 09:31:13;;;;;;;;;;;;;;;17.82;29.55;102649.88;4997553;28;778;-51
2022/03/21 09:33:39;;;;;;;;;;;;;;;18.02;29.29;102655.09;4999598;28;758;-52
2022/03/21 09:36:04;;;;;;;;;;;;;;;18.32;28.44;102639.56;4996907;28;881;-49
2022/03/21 09:38:30;;;;;;;;;;;;;;;18.42;27.94;102642.53;4998933;28;841;-48
2022/03/21 09:40:56;;;;;;;;;;;;;;;18.38;28.27;102647.66;4999353;28;1899;-51
2022/03/21 09:43:23;;;;;;;;;;;;;;;18.18;28.29;102622.44;4990443;28;818;-50
2022/03/21 09:45:49;;;;;;;;;;;;;;;17.93;28.76;102615.22;4981676;28;861;-46
2022/03/21 09:48:17;;;;;;;;;;;;;;;17.92;28.81;102641.94;4973382;28;972;-51
2022/03/21 09:50:44;;;;;;;;;;;;;;;17.81;28.44;102625.34;4974456;28;1477;-47
2022/03/21 09:53:11;;;;;;;;;;;;;;;18.47;27.90;102613.19;4999026;28;845;-51
2022/03/21 09:55:37;;;;;;;;;;;;;;;18.68;27.56;102613.63;4998885;28;853;-49
2022/03/21 09:58:03;;;;;;;;;;;;;;;18.55;27.52;102613.88;4986829;28;1272;-48
2022/03/21 10:00:29;;;;;;;;;;;;;;;18.44;28.08;102623.84;4991015;28;1989;-52
2022/03/21 10:02:55;;;;;;;;;;;;;;;18.33;28.00;102625.53;4990940;28;877;-48
2022/03/21 10:05:40;;;;;;;;;;;;;;;18.41;27.76;102611.41;4962597;28;1018;-49
2022/03/21 10:08:13;;;;;;;;;;;;;;;18.50;27.84;102617.38;4979733;28;809;-47
2022/03/21 10:10:41;;;;;;;;;;;;;;;18.61;27.61;102612.94;4979951;28;767;-51
2022/03/21 10:13:09;;;;;;;;;;;;;;;18.60;27.83;102606.56;4980400;28;1249;-50
2022/03/21 10:15:35;;;;;;;;;;;;;;;18.49;27.98;102614.88;4998052;28;830;-49
2022/03/21 10:18:05;;;;;;;;;;;;;;;18.46;28.24;102603.22;4998276;28;782;-44
2022/03/21 10:20:33;;;;;;;;;;;;;;;18.36;28.49;102597.50;4983404;28;1991;-48
2022/03/21 10:23:13;;;;;;;;;;;;;;;18.20;28.75;102590.84;4979915;28;748;-48
2022/03/21 10:25:39;;;;;;;;;;;;;;;18.03;29.00;102590.69;4983061;28;1153;-51
2022/03/21 10:28:04;;;;;;;;;;;;;;;17.99;29.04;102592.25;4987885;28;826;-53
2022/03/21 10:30:31;;;;;;;;;;;;;;;18.03;29.06;102587.94;4993313;28;1215;-48
2022/03/21 10:32:57;;;;;;;;;;;;;;;18.05;29.04;102579.47;4984805;28;762;-50
2022/03/21 10:35:23;;;;;;;;;;;;;;;18.45;28.66;102589.72;4997316;28;815;-47
2022/03/21 10:38:15;;;;;;;;;;;;;;;18.51;28.25;102586.00;4997166;28;830;-48
2022/03/21 10:40:41;;;;;;;;;;;;;;;18.75;27.97;102584.00;4975653;28;1914;-50
2022/03/21 10:43:14;;;;;;;;;;;;;;;18.81;27.88;102599.56;4984932;28;857;-46
2022/03/21 10:45:44;;;;;;;;;;;;;;;18.88;27.78;102590.34;4997410;28;782;-47
2022/03/21 10:48:10;;;;;;;;;;;;;;;18.97;27.81;102569.56;4970159;28;1711;-51
2022/03/21 10:50:37;;;;;;;;;;;;;;;19.06;27.65;102565.34;4985513;28;941;-49
2022/03/21 10:53:12;;;;;;;;;;;;;;;19.03;27.74;102574.13;4981441;28;972;-49
2022/03/21 10:55:38;;;;;;;;;;;;;;;18.71;28.39;102554.44;4973988;28;842;-48
2022/03/21 10:58:04;;;;;;;;;;;;;;;18.59;28.48;102560.81;4966729;28;851;-49
2022/03/21 11:00:29;;;;;;;;;;;;;;;18.39;28.84;102555.72;4997254;28;1910;-47
2022/03/21 11:02:55;;;;;;;;;;;;;;;18.16;29.10;102561.25;4997873;28;810;-49
2022/03/21 11:05:21;;;;;;;;;;;;;;;17.95;29.43;102550.63;4991559;28;897;-48
2022/03/21 11:07:47;;;;;;;;;;;;;;;17.83;29.70;102554.41;4997126;28;885;-50
2022/03/21 11:10:12;;;;;;;;;;;;;;;17.68;30.06;102555.69;4997368;28;853;-51
2022/03/21 11:12:38;;;;;;;;;;;;;;;17.76;29.79;102540.78;4991556;28;853;-49
2022/03/21 11:15:04;;;;;;;;;;;;;;;18.34;29.07;102538.22;4996587;28;798;-49
2022/03/21 11:17:30;;;;;;;;;;;;;;;18.68;28.51;102522.69;4949207;28;1097;-47
2022/03/21 11:19:57;;;;;;;;;;;;;;;19.03;27.81;102529.16;4978005;28;1255;-49
2022/03/21 11:22:22;;;;;;;;;;;;;;;19.41;27.27;102531.22;4989746;28;1981;-46
2022/03/21 11:24:47;;;;;;;;;;;;;;;19.49;27.19;102513.41;4979593;28;997;-49
2022/03/21 11:27:13;;;;;;;;;;;;;;;19.07;28.13;102511.03;4977490;28;872;-48
2022/03/21 11:29:38;;;;;;;;;;;;;;;18.41;28.96;102514.16;4981849;28;799;-51
2022/03/21 11:32:08;;;;;;;;;;;;;;;17.85;29.97;102508.22;4996926;28;884;-50
2022/03/21 11:34:45;;;;;;;;;;;;;;;17.89;29.96;102512.16;4979341;28;1042;-50
2022/03/21 11:37:24;;;;;;;;;;;;;;;18.02;29.42;102505.59;4996821;28;850;-50
2022/03/21 11:39:50;;;;;;;;;;;;;;;18.05;29.58;102514.22;4996829;28;837;-48
2022/03/21 11:42:22;;;;;;;;;;;;;;;18.28;29.38;102504.25;4987570;28;1982;-50
2022/03/21 11:45:07;;;;;;;;;;;;;;;18.61;28.74;102508.22;4972429;28;811;-47
2022/03/21 11:47:34;;;;;;;;;;;;;;;18.71;28.64;102502.91;4976451;28;1164;-48
2022/03/21 11:50:00;;;;;;;;;;;;;;;18.88;28.31;102491.97;4989202;28;865;-51
2022/03/21 11:52:25;;;;;;;;;;;;;;;18.98;28.33;102491.31;4978052;28;712;-47
2022/03/21 11:54:51;;;;;;;;;;;;;;;18.96;28.36;102483.28;4978964;28;763;-50
2022/03/21 11:57:16;;;;;;;;;;;;;;;19.10;28.25;102496.78;4994341;28;963;-47
2022/03/21 11:59:42;;;;;;;;;;;;;;;19.19;27.91;102488.91;4977711;28;788;-47
2022/03/21 12:02:08;;;;;;;;;;;;;;;19.22;27.90;102475.44;4977662;28;1907;-51
2022/03/21 12:04:33;;;;;;;;;;;;;;;18.93;28.34;102482.97;4978432;28;866;-49
2022/03/21 12:07:11;;;;;;;;;;;;;;;18.86;28.55;102476.72;4977561;28;829;-46
2022/03/21 12:09:43;;;;;;;;;;;;;;;18.58;29.15;102476.50;4955263;28;1065;-46
2022/03/21 12:12:10;;;;;;;;;;;;;;;18.21;29.68;102487.03;4984928;28;811;-50
2022/03/21 12:14:44;;;;;;;;;;;;;;;18.08;30.02;102474.38;4992254;28;876;-48
2022/03/21 12:17:12;;;;;;;;;;;;;;;17.84;30.28;102481.78;4996808;28;753;-47
2022/03/21 12:20:01;;;;;;;;;;;;;;;17.84;30.23;102479.00;4987898;28;1065;-49
2022/03/21 12:22:26;;;;;;;;;;;;;;;18.28;29.61;102493.22;4995901;28;1965;-48
2022/03/21 12:24:52;;;;;;;;;;;;;;;18.84;28.65;102478.91;4996102;28;1005;-49
2022/03/21 12:27:29;;;;;;;;;;;;;;;19.12;28.38;102475.28;4990588;28;1142;-52
2022/03/21 12:30:15;;;;;;;;;;;;;;;19.40;27.74;102468.84;4971460;28;852;-49
2022/03/21 12:32:49;;;;;;;;;;;;;;;18.93;28.75;102471.94;4959523;28;1205;-50
2022/03/21 12:35:39;;;;;;;;;;;;;;;17.98;30.10;102476.88;4993673;28;765;-46
2022/03/21 12:38:09;;;;;;;;;;;;;;;18.07;30.02;102473.50;4984895;28;1148;-49
2022/03/21 12:40:35;;;;;;;;;;;;;;;18.06;30.01;102479.25;4971448;28;1913;-47
2022/03/21 12:43:01;;;;;;;;;;;;;;;18.09;29.98;102479.63;4976979;28;869;-50
2022/03/21 12:45:29;;;;;;;;;;;;;;;18.41;29.65;102465.44;4975587;28;778;-49
2022/03/21 12:48:03;;;;;;;;;;;;;;;18.69;28.92;102477.53;4971200;28;838;-50
2022/03/21 12:50:29;;;;;;;;;;;;;;;18.74;29.08;102463.00;4977032;28;846;-44
2022/03/21 12:52:55;;;;;;;;;;;;;;;19.01;28.47;102470.69;4977743;28;1116;-47
2022/03/21 12:55:21;;;;;;;;;;;;;;;19.17;28.39;102463.50;4977305;28;865;-50
2022/03/21 12:57:54;;;;;;;;;;;;;;;19.23;28.13;102462.50;4977030;28;829;-45
2022/03/21 13:00:20;;;;;;;;;;;;;;;19.33;28.02;102459.91;4990281;28;1902;-49
2022/03/21 13:02:46;;;;;;;;;;;;;;;19.11;28.36;102460.69;4996172;28;774;-49
2022/03/21 13:10:40;;;;;;;;;;;;;;;18.02;30.40;102450.56;4999671;28;762;-44
2022/03/21 13:13:05;;;;;;;;;;;;;;;17.92;30.50;102445.66;4987041;28;834;-47
2022/03/21 13:15:33;;;;;;;;;;;;;;;18.05;30.33;102453.66;4981246;28;838;-49
2022/03/21 13:18:01;;;;;;;;;;;;;;;18.24;29.75;102450.75;4980736;28;797;-47